Amityville, New York
Current Conditions -  °F | °C
As of 12:53 AM on Sunday 23 Nov 2014 (Local Time) from KFRG Reporting Station
Broken Clouds Broken Clouds  
Wind Chill: 39°   Ceiling: 12000
Heat Index: 45°   Visibility: 10mi
Dew Point: 24°   Wind: 12mph
Humidity: 44%   Direction: 240°WSW
Pressure: 30.2"   Gusts: NA
Location:  40.68°N, 73.42°W
Report Text: KFRG 230553Z AUTO 24010KT 10SM BKN120 07/M04 A3020 RMK AO2 SLP226 T00721044 10072 20067 58009
Loading
Personal Weather Stations






























Interactive Weather Map New forecast layout! Learn more

10-Day Weather Forecast

Advertisements
Track Severe Weather on mobile